Time;durP1;ratioP1;P1;durP2;ratioP2;P2;SDS_P1;SDS_P2;PMS_P1;PMS_P2;Temp;Humidity;BMP_temperature;BMP_pressure;BME280_temperature;BME280_humidity;BME280_pressure;Samples;Min_cycle;Max_cycle;Signal;HPM_P1;HPM_P2
2021/07/13 00:02:13;;;;;;;13.27;12.18;;;18.50;99.90;;;;;;5035896;28;20078;-73
2021/07/13 00:04:48;;;;;;;12.27;11.38;;;18.50;99.90;;;;;;5034349;28;20037;-73
2021/07/13 00:07:14;;;;;;;12.85;11.65;;;18.50;99.90;;;;;;5034985;28;20033;-72
2021/07/13 00:09:39;;;;;;;13.70;11.95;;;18.50;99.90;;;;;;5034969;28;20523;-73
2021/07/13 00:12:06;;;;;;;13.60;12.38;;;18.50;99.90;;;;;;5034512;28;20033;-73
2021/07/13 00:14:32;;;;;;;13.20;11.93;;;18.50;99.90;;;;;;5035058;28;20022;-73
2021/07/13 00:16:58;;;;;;;12.10;11.00;;;18.40;99.90;;;;;;5034774;28;20021;-73
2021/07/13 00:19:23;;;;;;;10.93;9.82;;;18.40;99.90;;;;;;5033877;28;20527;-73
2021/07/13 00:21:49;;;;;;;11.75;10.73;;;18.40;99.90;;;;;;5034152;28;20595;-74
2021/07/13 00:24:15;;;;;;;11.65;10.75;;;18.30;99.90;;;;;;5034278;28;20393;-73
2021/07/13 00:26:40;;;;;;;12.90;11.05;;;18.20;99.90;;;;;;5033626;28;20025;-73
2021/07/13 00:29:06;;;;;;;13.05;11.98;;;18.20;99.90;;;;;;5027383;28;20478;-73
2021/07/13 00:31:33;;;;;;;12.68;11.57;;;18.10;99.90;;;;;;5034526;28;20038;-74
2021/07/13 00:33:58;;;;;;;13.80;12.48;;;18.10;99.90;;;;;;5033486;28;20109;-73
2021/07/13 00:36:27;;;;;;;14.90;13.27;;;18.00;99.90;;;;;;5034399;28;20072;-74
2021/07/13 00:38:53;;;;;;;15.40;13.88;;;18.00;99.90;;;;;;5015534;28;20032;-74
2021/07/13 00:41:19;;;;;;;15.23;13.77;;;17.90;99.90;;;;;;5037650;28;20461;-74
2021/07/13 00:43:47;;;;;;;15.30;13.90;;;17.90;99.90;;;;;;5030994;28;20077;-74
2021/07/13 00:46:13;;;;;;;16.02;14.45;;;17.90;99.90;;;;;;5027175;28;20018;-73
2021/07/13 00:48:38;;;;;;;14.75;13.30;;;17.90;99.90;;;;;;5033892;28;20381;-73
2021/07/13 00:51:05;;;;;;;15.57;14.07;;;17.90;99.90;;;;;;5034008;28;20040;-73
2021/07/13 00:53:31;;;;;;;16.23;14.60;;;17.80;99.90;;;;;;5033501;28;20021;-73
2021/07/13 00:55:57;;;;;;;14.73;13.52;;;17.90;99.90;;;;;;5033704;28;20022;-73
2021/07/13 00:58:24;;;;;;;14.27;13.02;;;17.90;99.90;;;;;;5033512;28;20022;-74
2021/07/13 01:00:50;;;;;;;15.07;13.38;;;17.80;99.90;;;;;;5033076;28;20103;-73
2021/07/13 01:03:16;;;;;;;15.40;13.73;;;17.80;99.90;;;;;;5034589;28;20045;-73
2021/07/13 01:05:47;;;;;;;15.75;14.20;;;17.80;99.90;;;;;;5034216;28;20064;-73
2021/07/13 01:08:12;;;;;;;15.77;14.27;;;17.80;99.90;;;;;;5033128;28;20120;-73
2021/07/13 01:11:01;;;;;;;16.00;14.50;;;17.90;99.90;;;;;;5033488;28;20512;-73
2021/07/13 01:13:50;;;;;;;18.05;16.42;;;17.90;99.90;;;;;;5033409;28;20104;-72
2021/07/13 01:16:20;;;;;;;19.20;17.13;;;17.90;99.90;;;;;;5020269;28;20138;-73
2021/07/13 01:19:00;;;;;;;17.38;15.77;;;18.70;99.90;;;;;;5033666;28;20029;-73
2021/07/13 01:21:25;;;;;;;20.10;17.75;;;17.80;99.90;;;;;;5020947;28;20030;-73
2021/07/13 01:24:13;;;;;;;20.08;18.05;;;17.70;99.90;;;;;;5033667;28;20381;-73
2021/07/13 01:26:42;;;;;;;21.17;19.17;;;17.70;99.90;;;;;;5022546;28;20025;-72
2021/07/13 01:29:14;;;;;;;20.65;18.45;;;17.70;99.90;;;;;;5032919;28;20116;-73
2021/07/13 01:31:42;;;;;;;21.73;19.52;;;17.60;99.90;;;;;;5033355;28;20048;-72
2021/07/13 01:34:15;;;;;;;19.35;17.55;;;17.60;99.90;;;;;;5033893;28;20021;-73
2021/07/13 01:36:50;;;;;;;19.08;17.23;;;17.60;99.90;;;;;;5020028;28;20036;-72
2021/07/13 01:39:17;;;;;;;19.55;17.55;;;17.50;99.90;;;;;;5033664;28;20067;-72
2021/07/13 01:41:47;;;;;;;20.80;18.80;;;17.50;99.90;;;;;;5033085;28;20030;-73
2021/07/13 01:44:15;;;;;;;19.63;17.73;;;17.40;99.90;;;;;;5032863;28;20032;-73
2021/07/13 01:46:41;;;;;;;20.40;18.38;;;17.30;99.90;;;;;;5033313;28;20021;-73
2021/07/13 01:49:07;;;;;;;17.95;16.25;;;17.30;99.90;;;;;;5032321;28;20083;-73
2021/07/13 01:51:34;;;;;;;17.88;16.20;;;17.20;99.90;;;;;;5032772;28;20044;-73
2021/07/13 01:54:07;;;;;;;17.05;15.25;;;17.20;99.90;;;;;;5032911;28;20021;-72
2021/07/13 01:56:35;;;;;;;18.08;16.38;;;17.20;99.90;;;;;;5032764;28;20025;-73
2021/07/13 01:59:03;;;;;;;19.40;16.85;;;17.10;99.90;;;;;;5034423;28;20025;-73
2021/07/13 02:01:31;;;;;;;19.92;16.98;;;17.10;99.90;;;;;;5034118;28;20057;-73
2021/07/13 02:03:57;;;;;;;19.08;17.23;;;17.10;99.90;;;;;;5032446;28;20048;-74
2021/07/13 02:06:25;;;;;;;18.48;16.60;;;17.00;99.90;;;;;;5033591;28;20033;-72
2021/07/13 02:08:53;;;;;;;18.27;16.63;;;17.00;99.90;;;;;;5032506;28;20100;-73
2021/07/13 02:11:20;;;;;;;18.20;16.05;;;17.00;99.90;;;;;;5031800;28;20060;-73
2021/07/13 02:13:46;;;;;;;19.85;17.85;;;17.00;99.90;;;;;;5032184;28;20033;-72
2021/07/13 02:16:11;;;;;;;19.45;17.65;;;17.00;99.90;;;;;;5032284;28;20031;-72
2021/07/13 02:18:37;;;;;;;19.77;17.77;;;16.90;99.90;;;;;;5032031;28;20484;-73
2021/07/13 02:21:04;;;;;;;19.58;17.73;;;16.90;99.90;;;;;;5032888;28;20527;-73
2021/07/13 02:23:30;;;;;;;21.08;17.25;;;16.90;99.90;;;;;;5032981;28;20033;-74
2021/07/13 02:26:01;;;;;;;16.70;15.25;;;16.90;99.90;;;;;;5032187;28;20051;-73
2021/07/13 02:28:39;;;;;;;15.55;14.25;;;16.80;99.90;;;;;;5034652;28;20175;-74
2021/07/13 02:31:27;;;;;;;17.98;16.05;;;16.80;99.90;;;;;;5032043;28;20060;-73
2021/07/13 02:34:02;;;;;;;22.75;19.88;;;16.80;99.90;;;;;;5032091;28;20025;-73
2021/07/13 02:36:32;;;;;;;25.63;22.00;;;16.80;99.90;;;;;;5032296;28;20018;-74
2021/07/13 02:39:00;;;;;;;25.88;23.08;;;16.80;99.90;;;;;;5031295;28;20028;-74
2021/07/13 02:41:27;;;;;;;26.20;23.40;;;16.80;99.90;;;;;;5032337;28;20079;-74
2021/07/13 02:43:54;;;;;;;26.27;23.42;;;16.90;99.90;;;;;;5032070;28;20495;-74
2021/07/13 02:46:22;;;;;;;25.00;22.25;;;17.10;99.90;;;;;;5031295;28;20473;-74
2021/07/13 02:48:49;;;;;;;26.75;24.00;;;17.00;99.90;;;;;;5031785;28;20025;-74
2021/07/13 02:51:16;;;;;;;25.48;22.77;;;17.00;99.90;;;;;;5032171;28;20429;-74
2021/07/13 02:53:44;;;;;;;28.38;24.73;;;17.10;99.90;;;;;;5018088;28;20033;-74
2021/07/13 02:56:11;;;;;;;29.55;25.60;;;17.10;99.90;;;;;;5032439;28;20465;-73
2021/07/13 02:58:38;;;;;;;27.63;24.10;;;17.20;99.90;;;;;;5032366;28;20025;-74
2021/07/13 03:01:05;;;;;;;26.50;23.70;;;17.20;99.90;;;;;;5031507;28;20026;-74
2021/07/13 03:03:31;;;;;;;33.58;25.67;;;17.30;99.90;;;;;;5032022;28;20168;-73
2021/07/13 03:05:58;;;;;;;27.70;24.73;;;17.30;99.90;;;;;;5032419;28;20049;-73
2021/07/13 03:08:25;;;;;;;27.67;24.85;;;17.30;99.90;;;;;;5035411;28;20033;-73
2021/07/13 03:10:53;;;;;;;28.60;23.55;;;17.30;99.90;;;;;;5036121;28;20465;-74
2021/07/13 03:13:23;;;;;;;28.48;25.35;;;17.40;99.90;;;;;;5035720;28;20370;-73
2021/07/13 03:15:50;;;;;;;30.13;25.80;;;17.40;99.90;;;;;;5021923;28;20017;-73
2021/07/13 03:18:17;;;;;;;36.83;28.35;;;17.40;99.90;;;;;;5036390;28;20116;-73
2021/07/13 03:20:46;;;;;;;37.00;28.85;;;17.50;99.90;;;;;;5035586;28;20404;-73
2021/07/13 03:23:13;;;;;;;30.88;27.10;;;17.50;99.90;;;;;;5036295;28;20061;-72
2021/07/13 03:25:41;;;;;;;35.35;27.10;;;17.60;99.90;;;;;;5035868;28;20465;-74
2021/07/13 03:28:09;;;;;;;31.83;26.48;;;17.60;99.90;;;;;;5035099;28;20051;-72
2021/07/13 03:30:35;;;;;;;37.03;31.27;;;17.70;99.90;;;;;;5035802;28;20483;-74
2021/07/13 03:33:02;;;;;;;36.40;29.20;;;17.70;99.90;;;;;;5035328;28;20543;-73
2021/07/13 03:35:29;;;;;;;39.15;29.98;;;17.80;99.90;;;;;;5035028;28;20060;-73
2021/07/13 03:37:56;;;;;;;35.92;29.08;;;17.80;99.90;;;;;;5035330;28;20033;-72
2021/07/13 03:40:24;;;;;;;42.42;34.15;;;17.90;99.90;;;;;;5035432;28;20358;-73
2021/07/13 03:42:50;;;;;;;36.83;31.88;;;17.90;99.90;;;;;;5034464;28;20088;-73
2021/07/13 03:45:17;;;;;;;35.05;27.70;;;18.00;99.90;;;;;;5035773;28;20040;-72
2021/07/13 03:47:46;;;;;;;34.28;27.88;;;18.00;99.90;;;;;;5036208;28;20041;-73
2021/07/13 03:50:12;;;;;;;34.28;28.08;;;18.10;99.90;;;;;;5035095;28;20017;-72
2021/07/13 03:52:38;;;;;;;40.38;32.85;;;18.10;99.90;;;;;;5035839;28;20048;-73
2021/07/13 03:55:04;;;;;;;46.40;35.15;;;18.10;99.90;;;;;;5035152;28;20044;-73
2021/07/13 03:57:31;;;;;;;48.67;35.15;;;18.10;99.90;;;;;;5034621;28;20163;-73
2021/07/13 03:59:56;;;;;;;44.88;34.92;;;18.20;99.90;;;;;;5035308;28;20017;-73
2021/07/13 04:02:22;;;;;;;43.50;34.30;;;18.20;99.90;;;;;;5035115;28;20428;-73
2021/07/13 04:04:47;;;;;;;43.58;33.05;;;18.20;99.90;;;;;;5034286;28;20033;-73
2021/07/13 04:07:13;;;;;;;51.83;36.83;;;18.20;99.90;;;;;;5035074;28;20032;-73
2021/07/13 04:09:39;;;;;;;50.25;37.60;;;18.20;99.90;;;;;;5035271;28;20405;-73
2021/07/13 04:12:05;;;;;;;53.63;37.78;;;18.30;99.90;;;;;;5034133;28;20452;-73
2021/07/13 04:14:31;;;;;;;55.25;38.97;;;18.30;99.90;;;;;;5035262;28;20109;-73
2021/07/13 04:16:56;;;;;;;62.53;41.08;;;18.40;99.90;;;;;;5033510;28;20073;-73
2021/07/13 04:19:22;;;;;;;57.88;40.97;;;18.40;99.90;;;;;;5033951;28;20064;-73
2021/07/13 04:21:47;;;;;;;60.58;42.08;;;18.40;99.90;;;;;;5034470;28;20029;-74
2021/07/13 04:24:13;;;;;;;62.45;43.42;;;18.40;99.90;;;;;;5033866;28;20530;-73
2021/07/13 04:26:38;;;;;;;67.68;43.50;;;18.40;99.90;;;;;;5034623;28;20075;-74
2021/07/13 04:29:04;;;;;;;74.30;47.85;;;18.50;99.90;;;;;;5035198;28;20017;-73
2021/07/13 04:31:30;;;;;;;71.15;46.88;;;18.50;99.90;;;;;;5034647;28;20041;-73
2021/07/13 04:33:56;;;;;;;69.45;44.42;;;18.50;99.90;;;;;;5034324;28;20017;-72
2021/07/13 04:36:21;;;;;;;68.32;41.92;;;18.50;99.90;;;;;;5035189;28;20033;-73
2021/07/13 04:38:47;;;;;;;63.50;43.35;;;18.50;99.90;;;;;;5034583;28;20018;-72
2021/07/13 04:41:13;;;;;;;65.68;42.88;;;18.50;99.90;;;;;;5035489;28;20032;-72
2021/07/13 04:43:38;;;;;;;64.82;41.70;;;18.50;99.90;;;;;;5035453;28;20105;-72
2021/07/13 04:46:04;;;;;;;57.58;39.30;;;18.50;99.90;;;;;;5033419;28;20032;-73
2021/07/13 04:48:29;;;;;;;63.13;43.15;;;18.50;99.90;;;;;;5034143;28;20108;-73
2021/07/13 04:50:55;;;;;;;61.10;42.58;;;18.60;99.90;;;;;;5034348;28;20400;-74
2021/07/13 04:53:20;;;;;;;59.70;41.55;;;18.60;99.90;;;;;;5033774;28;20025;-73
2021/07/13 04:55:46;;;;;;;68.45;44.42;;;18.60;99.90;;;;;;5034535;28;20029;-73
2021/07/13 04:58:11;;;;;;;63.25;42.72;;;18.70;99.90;;;;;;5033593;28;20029;-73
2021/07/13 05:00:37;;;;;;;72.10;46.38;;;18.70;99.90;;;;;;5021155;28;20461;-73
2021/07/13 05:03:03;;;;;;;71.00;45.75;;;18.70;99.90;;;;;;5033278;28;20037;-72
2021/07/13 05:05:28;;;;;;;78.03;50.70;;;18.80;99.90;;;;;;5034202;28;20026;-72
2021/07/13 05:07:54;;;;;;;81.47;52.10;;;18.80;99.90;;;;;;5033689;28;20438;-75
2021/07/13 05:10:19;;;;;;;86.57;51.92;;;18.90;99.90;;;;;;5037308;28;20521;-74
2021/07/13 05:12:45;;;;;;;90.47;57.10;;;18.90;99.90;;;;;;5037845;28;20041;-74
2021/07/13 05:15:13;;;;;;;79.18;51.38;;;18.90;99.90;;;;;;5033939;28;20032;-72
2021/07/13 05:17:39;;;;;;;97.30;59.17;;;19.00;99.90;;;;;;5034293;28;20100;-74
2021/07/13 05:20:07;;;;;;;89.38;56.08;;;19.00;99.90;;;;;;5032870;28;20113;-73
2021/07/13 05:22:34;;;;;;;98.32;58.20;;;19.00;99.90;;;;;;5034106;28;20496;-73
2021/07/13 05:24:59;;;;;;;101.47;59.38;;;19.00;99.90;;;;;;5033735;28;20041;-73
2021/07/13 05:27:25;;;;;;;98.70;59.20;;;19.00;99.90;;;;;;5033223;28;20032;-72
2021/07/13 05:29:51;;;;;;;99.60;59.97;;;19.00;99.90;;;;;;5032710;28;20032;-73
2021/07/13 05:32:17;;;;;;;87.38;54.17;;;19.00;99.90;;;;;;5017423;28;20033;-73
2021/07/13 05:34:43;;;;;;;88.90;55.47;;;19.10;99.90;;;;;;5013117;28;20109;-73
2021/07/13 05:37:10;;;;;;;92.20;55.67;;;19.10;99.90;;;;;;5019775;28;20030;-72
2021/07/13 05:39:36;;;;;;;90.22;56.05;;;19.10;99.90;;;;;;5014815;28;20492;-72
2021/07/13 05:42:02;;;;;;;84.95;51.83;;;19.10;99.90;;;;;;5023117;28;20021;-74
2021/07/13 05:44:28;;;;;;;76.65;49.13;;;19.10;99.90;;;;;;5031468;28;20064;-74
2021/07/13 05:46:54;;;;;;;76.55;47.20;;;19.20;99.90;;;;;;5031815;28;20473;-73
2021/07/13 05:49:19;;;;;;;71.97;47.38;;;19.20;99.90;;;;;;5031222;28;20037;-73
2021/07/13 05:51:45;;;;;;;69.55;45.50;;;19.20;99.90;;;;;;5031089;28;20033;-73
2021/07/13 05:54:11;;;;;;;63.42;45.10;;;19.20;99.90;;;;;;5029527;28;20084;-73
2021/07/13 05:56:38;;;;;;;66.35;44.80;;;19.30;99.90;;;;;;5028282;28;20111;-73
2021/07/13 05:59:05;;;;;;;66.88;44.05;;;19.40;99.90;;;;;;5032173;28;20492;-73
2021/07/13 06:01:30;;;;;;;65.95;44.08;;;19.40;99.90;;;;;;5032900;28;20465;-72
2021/07/13 06:03:56;;;;;;;65.80;45.50;;;19.40;99.90;;;;;;5031627;28;20048;-73
2021/07/13 06:06:21;;;;;;;64.05;45.00;;;19.40;99.90;;;;;;5020853;28;20034;-74
2021/07/13 06:08:47;;;;;;;62.63;43.35;;;19.80;99.90;;;;;;5030220;28;20381;-73
2021/07/13 06:11:13;;;;;;;69.63;44.40;;;19.40;99.90;;;;;;5030677;28;20068;-72
2021/07/13 06:13:38;;;;;;;71.15;44.33;;;19.40;99.90;;;;;;5030763;28;20041;-73
2021/07/13 06:16:04;;;;;;;63.72;41.60;;;19.40;99.90;;;;;;5028371;28;20045;-73
2021/07/13 06:18:30;;;;;;;68.32;44.42;;;19.40;99.90;;;;;;5031172;28;20022;-73
2021/07/13 06:20:55;;;;;;;67.63;43.38;;;19.40;99.90;;;;;;5031695;28;20026;-73
2021/07/13 06:23:21;;;;;;;68.80;45.28;;;19.40;99.90;;;;;;5030495;28;20527;-73
2021/07/13 06:25:46;;;;;;;67.93;44.10;;;19.40;99.90;;;;;;5031005;28;20131;-74
2021/07/13 06:28:12;;;;;;;66.93;42.25;;;19.40;99.90;;;;;;5033498;28;20025;-73
2021/07/13 06:30:38;;;;;;;67.75;43.40;;;19.40;99.90;;;;;;5033310;28;20060;-74
2021/07/13 06:33:03;;;;;;;68.80;44.83;;;19.40;99.90;;;;;;5027085;28;20041;-72
2021/07/13 06:35:29;;;;;;;59.75;41.75;;;19.50;99.90;;;;;;5031746;28;20030;-72
2021/07/13 06:37:57;;;;;;;65.90;42.72;;;19.50;99.90;;;;;;5030265;28;20034;-72
2021/07/13 06:40:23;;;;;;;67.60;43.08;;;19.50;99.90;;;;;;5032460;28;20485;-72
2021/07/13 06:42:48;;;;;;;63.13;43.13;;;19.50;99.90;;;;;;5029647;28;20049;-72
2021/07/13 06:45:14;;;;;;;59.13;41.15;;;19.50;99.90;;;;;;5030125;28;20132;-73
2021/07/13 06:47:39;;;;;;;61.88;42.20;;;19.50;99.90;;;;;;5033149;28;20104;-71
2021/07/13 06:50:05;;;;;;;60.70;43.33;;;19.50;99.90;;;;;;5029665;28;20022;-72
2021/07/13 06:52:31;;;;;;;60.10;43.33;;;19.60;99.90;;;;;;5031411;28;20045;-72
2021/07/13 06:55:02;;;;;;;61.42;42.95;;;20.30;99.90;;;;;;5032158;28;20350;-73
2021/07/13 06:57:28;;;;;;;60.90;42.17;;;19.60;99.90;;;;;;5031285;28;20405;-73
2021/07/13 06:59:59;;;;;;;63.38;42.25;;;19.60;99.90;;;;;;5023371;28;20033;-73
2021/07/13 07:02:26;;;;;;;60.33;43.13;;;19.60;99.90;;;;;;5031467;28;20088;-72
2021/07/13 07:04:52;;;;;;;61.95;41.20;;;19.70;99.90;;;;;;5028990;28;20026;-76
2021/07/13 07:07:18;;;;;;;60.20;41.80;;;19.70;99.90;;;;;;5028869;28;20026;-72
2021/07/13 07:09:43;;;;;;;58.05;40.20;;;19.80;99.90;;;;;;5032015;28;20013;-72
2021/07/13 07:12:09;;;;;;;60.58;42.17;;;19.80;99.90;;;;;;5031317;28;20620;-71
2021/07/13 07:14:34;;;;;;;58.63;40.58;;;19.90;99.90;;;;;;5030441;28;20021;-72
2021/07/13 07:17:00;;;;;;;57.15;39.97;;;19.90;99.90;;;;;;5025203;28;20144;-71
2021/07/13 07:19:28;;;;;;;53.97;40.03;;;19.90;99.90;;;;;;5019503;28;20486;-72
2021/07/13 07:21:54;;;;;;;60.03;40.22;;;19.90;99.90;;;;;;5030769;28;20033;-73
2021/07/13 07:24:19;;;;;;;53.42;39.75;;;19.90;99.90;;;;;;5030060;28;20520;-72
2021/07/13 07:26:45;;;;;;;56.28;40.13;;;19.90;99.90;;;;;;5031378;28;20022;-73
2021/07/13 07:29:11;;;;;;;59.20;41.03;;;19.90;99.90;;;;;;5030355;28;20029;-72
2021/07/13 07:31:36;;;;;;;58.65;41.28;;;19.90;99.90;;;;;;5014534;28;20072;-72
2021/07/13 07:34:02;;;;;;;58.53;41.30;;;19.80;99.90;;;;;;5031030;28;20025;-73
2021/07/13 07:36:28;;;;;;;61.10;40.65;;;19.90;99.90;;;;;;5026524;28;20037;-74
2021/07/13 07:38:54;;;;;;;60.45;41.65;;;19.80;99.90;;;;;;5032962;28;20026;-73
2021/07/13 07:41:23;;;;;;;57.60;39.75;;;19.80;99.90;;;;;;5020590;28;20114;-74
2021/07/13 07:43:49;;;;;;;57.20;38.78;;;19.80;99.90;;;;;;5032732;28;20026;-74
2021/07/13 07:46:15;;;;;;;57.97;39.17;;;19.80;99.90;;;;;;5033812;28;20025;-73
2021/07/13 07:48:41;;;;;;;58.05;38.10;;;19.80;99.90;;;;;;5031875;28;20076;-75
2021/07/13 07:51:06;;;;;;;60.25;40.42;;;19.90;99.90;;;;;;5029074;28;20025;-72
2021/07/13 07:53:32;;;;;;;58.13;40.67;;;19.80;99.90;;;;;;5029600;28;20359;-75
2021/07/13 07:55:57;;;;;;;61.28;40.55;;;19.90;99.90;;;;;;5034170;28;20097;-73
2021/07/13 07:58:23;;;;;;;57.70;39.58;;;19.80;99.90;;;;;;5035928;28;21194;-73
2021/07/13 08:00:49;;;;;;;57.38;40.72;;;19.90;99.90;;;;;;5036079;28;20030;-72
2021/07/13 08:03:14;;;;;;;58.70;39.50;;;19.90;99.90;;;;;;5034835;28;20057;-74
2021/07/13 08:05:43;;;;;;;55.78;38.80;;;19.90;99.90;;;;;;5035834;28;20059;-75
2021/07/13 08:08:09;;;;;;;60.28;39.65;;;20.00;99.90;;;;;;5019239;28;20100;-73
2021/07/13 08:10:36;;;;;;;54.17;39.83;;;20.00;99.90;;;;;;5035477;28;20057;-74
2021/07/13 08:13:04;;;;;;;55.88;39.88;;;20.00;99.90;;;;;;5018577;28;20037;-73
2021/07/13 08:15:30;;;;;;;57.67;39.10;;;20.00;99.90;;;;;;5035804;28;20461;-73
2021/07/13 08:17:56;;;;;;;64.55;41.80;;;20.00;99.90;;;;;;5030993;28;20057;-74
2021/07/13 08:20:21;;;;;;;52.28;37.08;;;20.10;99.90;;;;;;5024126;28;20088;-73
2021/07/13 08:22:48;;;;;;;53.55;36.95;;;20.00;99.90;;;;;;5025740;28;20389;-74
2021/07/13 08:25:19;;;;;;;54.33;37.97;;;20.10;99.90;;;;;;5034346;28;20034;-73
2021/07/13 08:27:46;;;;;;;51.92;37.42;;;20.20;99.90;;;;;;5034828;28;20538;-72
2021/07/13 08:30:13;;;;;;;53.53;35.97;;;20.20;99.90;;;;;;5034219;28;20079;-74
2021/07/13 08:32:39;;;;;;;54.80;37.70;;;20.20;99.90;;;;;;5035313;28;20042;-73
2021/07/13 08:35:11;;;;;;;55.55;37.45;;;20.20;99.90;;;;;;5035458;28;20473;-74
2021/07/13 08:37:37;;;;;;;55.72;38.58;;;20.20;99.90;;;;;;5035093;28;20052;-73
2021/07/13 08:40:09;;;;;;;52.63;37.08;;;20.10;99.90;;;;;;5034958;28;20021;-72
2021/07/13 08:42:38;;;;;;;54.80;38.15;;;20.20;99.90;;;;;;5035590;28;20037;-73
2021/07/13 08:45:15;;;;;;;51.42;36.03;;;20.20;99.90;;;;;;5030600;28;20021;-73
2021/07/13 08:47:43;;;;;;;56.38;38.17;;;20.10;99.90;;;;;;5039423;28;20087;-73
2021/07/13 08:50:10;;;;;;;57.63;37.53;;;20.10;99.90;;;;;;5048142;28;20549;-74
2021/07/13 08:52:36;;;;;;;52.08;37.53;;;20.10;99.90;;;;;;5045968;28;20036;-73
2021/07/13 08:55:04;;;;;;;56.28;40.20;;;20.20;99.90;;;;;;5044545;28;20504;-73
2021/07/13 08:57:29;;;;;;;59.78;39.55;;;20.20;99.90;;;;;;5051113;28;20036;-72
2021/07/13 08:59:55;;;;;;;54.50;37.25;;;20.20;99.90;;;;;;5046875;28;20381;-73
2021/07/13 09:02:21;;;;;;;52.33;36.35;;;20.30;99.90;;;;;;5044577;28;20078;-73
2021/07/13 09:04:46;;;;;;;50.20;36.17;;;20.30;99.90;;;;;;5041591;28;20068;-74
2021/07/13 09:07:16;;;;;;;49.53;34.25;;;20.30;99.90;;;;;;5047921;28;20111;-74
2021/07/13 09:09:44;;;;;;;50.10;37.07;;;20.40;99.90;;;;;;5045881;28;20040;-72
2021/07/13 09:12:16;;;;;;;48.72;34.05;;;20.50;99.90;;;;;;5048516;28;20299;-74
2021/07/13 09:14:48;;;;;;;44.15;33.58;;;20.50;99.90;;;;;;5050138;28;20033;-72
2021/07/13 09:17:26;;;;;;;49.90;33.95;;;20.60;99.90;;;;;;5042187;28;20498;-72
2021/07/13 09:20:31;;;;;;;49.45;35.05;;;20.70;99.90;;;;;;5046992;28;20045;-73
2021/07/13 09:23:06;;;;;;;50.30;34.58;;;20.70;99.90;;;;;;5037921;28;20461;-73
2021/07/13 09:25:44;;;;;;;47.13;34.92;;;21.30;99.90;;;;;;5047560;28;20029;-73
2021/07/13 09:28:14;;;;;;;45.58;32.95;;;20.90;99.90;;;;;;5031093;28;20044;-72
2021/07/13 09:30:45;;;;;;;42.10;32.10;;;20.90;99.90;;;;;;5044247;28;20028;-72
2021/07/13 09:33:15;;;;;;;42.13;31.20;;;21.00;99.90;;;;;;5042603;28;20064;-72
2021/07/13 09:36:04;;;;;;;44.70;32.67;;;21.10;99.90;;;;;;5046097;28;20787;-73
2021/07/13 09:38:38;;;;;;;41.03;31.48;;;21.20;99.90;;;;;;5048338;28;20751;-72
2021/07/13 09:41:10;;;;;;;49.25;34.20;;;21.10;99.90;;;;;;5048160;28;20032;-72
2021/07/13 09:43:43;;;;;;;46.53;33.75;;;21.20;99.90;;;;;;5050122;28;20029;-72
2021/07/13 09:46:25;;;;;;;51.75;36.17;;;21.10;99.90;;;;;;5052364;28;20021;-73
2021/07/13 09:49:06;;;;;;;51.25;35.00;;;21.00;99.90;;;;;;5050102;28;20021;-73
2021/07/13 09:51:32;;;;;;;49.47;36.03;;;20.90;99.90;;;;;;5041292;28;20412;-73
2021/07/13 09:53:58;;;;;;;54.05;36.00;;;20.80;99.90;;;;;;5046672;28;20017;-72
2021/07/13 09:56:42;;;;;;;50.15;34.65;;;20.80;99.90;;;;;;5049999;28;20060;-72
2021/07/13 09:59:08;;;;;;;50.72;35.25;;;20.80;99.90;;;;;;5046150;28;20021;-73
2021/07/13 10:01:34;;;;;;;55.33;37.67;;;20.80;99.90;;;;;;5046862;28;20488;-72
2021/07/13 10:04:01;;;;;;;52.35;35.60;;;20.80;99.90;;;;;;5038508;28;20053;-72
2021/07/13 10:06:31;;;;;;;50.97;35.08;;;20.80;99.90;;;;;;5048985;28;20425;-72
2021/07/13 10:09:00;;;;;;;56.03;36.55;;;20.80;99.90;;;;;;5042532;28;20052;-73
2021/07/13 10:11:31;;;;;;;50.70;35.60;;;20.80;99.90;;;;;;5031753;28;20063;-73
2021/07/13 10:14:00;;;;;;;51.17;34.88;;;20.80;99.90;;;;;;5033214;28;20071;-72
2021/07/13 10:16:28;;;;;;;51.75;36.85;;;20.70;99.90;;;;;;5031772;28;20115;-73
2021/07/13 10:18:53;;;;;;;50.63;36.78;;;20.70;99.90;;;;;;5026233;28;20067;-74
2021/07/13 10:21:20;;;;;;;62.33;38.78;;;20.80;99.90;;;;;;5033639;28;20018;-74
2021/07/13 10:23:46;;;;;;;54.60;35.83;;;20.60;99.90;;;;;;5032460;28;20032;-75
2021/07/13 10:26:12;;;;;;;50.88;36.47;;;20.60;99.90;;;;;;5029491;28;20418;-74
2021/07/13 10:28:41;;;;;;;57.97;37.83;;;20.60;99.90;;;;;;5032635;28;20067;-75
2021/07/13 10:31:06;;;;;;;60.28;38.90;;;20.50;99.90;;;;;;5030524;28;20013;-74
2021/07/13 10:33:37;;;;;;;56.10;37.60;;;20.50;99.90;;;;;;5033348;28;20109;-74
2021/07/13 10:36:31;;;;;;;56.85;37.92;;;20.60;99.90;;;;;;5033086;28;20048;-73
2021/07/13 10:39:32;;;;;;;56.90;37.25;;;20.60;99.90;;;;;;5033463;28;20496;-73
2021/07/13 10:42:02;;;;;;;47.22;33.90;;;20.70;99.90;;;;;;5027683;28;20037;-73
2021/07/13 10:44:48;;;;;;;48.75;35.10;;;20.70;99.90;;;;;;5031599;28;20025;-74
2021/07/13 10:47:30;;;;;;;48.30;33.60;;;20.60;99.90;;;;;;5029983;28;20388;-72
2021/07/13 10:50:20;;;;;;;45.53;33.08;;;20.70;99.90;;;;;;5027592;28;20055;-69
2021/07/13 10:52:57;;;;;;;50.22;34.50;;;20.70;99.90;;;;;;5044364;28;20122;-72
2021/07/13 10:55:32;;;;;;;44.40;32.78;;;20.70;99.90;;;;;;5046715;28;20040;-72
2021/07/13 10:58:15;;;;;;;44.95;32.67;;;20.70;99.90;;;;;;5044150;28;20515;-73
2021/07/13 11:00:50;;;;;;;44.40;31.45;;;20.70;99.90;;;;;;5050824;28;20024;-74
2021/07/13 11:03:30;;;;;;;43.28;33.00;;;20.70;99.90;;;;;;5046953;28;20053;-72
2021/07/13 11:06:03;;;;;;;44.75;32.15;;;20.70;99.90;;;;;;5048335;28;20067;-73
2021/07/13 11:08:52;;;;;;;48.78;33.78;;;20.60;99.90;;;;;;5046354;28;20029;-73
2021/07/13 11:11:20;;;;;;;45.38;35.13;;;20.60;99.90;;;;;;5050789;28;20388;-73
2021/07/13 11:14:02;;;;;;;50.80;35.97;;;20.60;99.90;;;;;;5028168;28;20033;-73
2021/07/13 11:16:30;;;;;;;49.95;35.33;;;20.50;99.90;;;;;;5047130;28;20075;-73
2021/07/13 11:18:58;;;;;;;42.60;33.22;;;20.60;99.90;;;;;;5043973;28;20495;-73
2021/07/13 11:21:28;;;;;;;48.03;33.45;;;20.60;99.90;;;;;;5049428;28;20420;-74
2021/07/13 11:23:59;;;;;;;45.87;32.83;;;20.50;99.90;;;;;;5049238;28;20017;-73
2021/07/13 11:26:26;;;;;;;44.65;32.58;;;20.60;99.90;;;;;;5047415;28;20274;-73
2021/07/13 11:28:57;;;;;;;53.95;34.15;;;20.60;99.90;;;;;;5053681;28;20094;-73
2021/07/13 11:31:28;;;;;;;43.83;32.63;;;20.40;99.90;;;;;;5053652;28;20120;-72
2021/07/13 11:34:05;;;;;;;39.88;31.10;;;20.50;99.90;;;;;;5048435;28;20033;-73
2021/07/13 11:36:42;;;;;;;44.10;32.28;;;20.50;99.90;;;;;;5051251;28;20100;-74
2021/07/13 11:39:11;;;;;;;40.50;31.30;;;20.50;99.90;;;;;;5053847;28;20028;-73
2021/07/13 11:41:37;;;;;;;44.42;31.45;;;20.70;99.90;;;;;;5046830;28;20047;-73
2021/07/13 11:44:09;;;;;;;41.15;31.33;;;20.70;99.90;;;;;;5038428;28;20041;-72
2021/07/13 11:46:37;;;;;;;43.15;32.67;;;20.90;99.90;;;;;;5031673;28;20033;-73
2021/07/13 11:49:06;;;;;;;41.78;30.35;;;20.90;99.90;;;;;;5031080;28;20034;-73
2021/07/13 11:51:37;;;;;;;43.85;32.05;;;21.10;99.90;;;;;;5029550;28;20018;-74
2021/07/13 11:54:07;;;;;;;48.42;33.05;;;21.00;99.90;;;;;;5031878;28;20025;-73
2021/07/13 11:56:35;;;;;;;47.78;30.38;;;21.10;99.90;;;;;;5029549;28;20043;-72
2021/07/13 11:59:01;;;;;;;39.80;30.33;;;21.10;99.90;;;;;;5031175;28;20042;-73
2021/07/13 12:01:29;;;;;;;42.35;30.35;;;21.10;99.90;;;;;;5047672;28;20029;-73
2021/07/13 12:04:04;;;;;;;38.50;30.77;;;21.10;99.90;;;;;;5047767;28;20037;-73
2021/07/13 12:06:30;;;;;;;40.95;30.95;;;20.90;99.90;;;;;;5049458;28;20029;-73
2021/07/13 12:08:58;;;;;;;42.55;30.42;;;21.00;99.90;;;;;;5036877;28;20083;-73
2021/07/13 12:11:33;;;;;;;48.75;33.28;;;21.00;99.90;;;;;;5031917;28;20136;-72
2021/07/13 12:14:00;;;;;;;51.22;33.40;;;20.90;99.90;;;;;;5036945;28;20014;-73
2021/07/13 12:16:29;;;;;;;47.13;33.95;;;21.00;99.90;;;;;;5031372;28;20037;-72
2021/07/13 12:18:58;;;;;;;46.45;33.70;;;20.90;99.90;;;;;;5036524;28;20479;-72
2021/07/13 12:21:25;;;;;;;53.47;37.77;;;20.80;99.90;;;;;;5031996;28;20021;-72
2021/07/13 12:23:53;;;;;;;49.65;34.05;;;20.90;99.90;;;;;;5031355;28;20029;-72
2021/07/13 12:26:21;;;;;;;50.45;33.88;;;20.80;99.90;;;;;;5032727;28;20065;-72
2021/07/13 12:29:13;;;;;;;50.53;36.13;;;20.70;99.90;;;;;;5032381;28;20014;-72
2021/07/13 12:31:45;;;;;;;50.72;35.38;;;20.80;99.90;;;;;;5032285;28;20021;-73
2021/07/13 12:34:25;;;;;;;53.20;34.95;;;20.70;99.90;;;;;;5034655;28;20116;-72
2021/07/13 12:37:11;;;;;;;;;;;20.70;99.90;;;;;;5034385;28;20037;-71